Time,TemperatureF,DewpointF,PressureIn,WindDirection,WindDirectionDegrees,WindSpeedMPH,WindSpeedGustMPH,Humidity,HourlyPrecipIn,Conditions,Clouds,dailyrainin,SoftwareType,DateUTC
2013-11-06 00:01:00,32.3,31.3,30.05,NW,322,0.0,0.0,96,0.00,,SKC,0.00,VWS V14.01,2013-11-06 06:01:00,
2013-11-06 00:06:00,32.3,31.3,30.05,NW,322,0.0,0.0,96,0.00,,SKC,0.00,VWS V14.01,2013-11-06 06:06:00,
2013-11-06 00:11:00,32.3,31.3,30.05,NW,322,0.0,0.0,96,0.00,,SKC,0.00,VWS V14.01,2013-11-06 06:11:00,
2013-11-06 00:16:00,32.2,31.2,30.05,NW,318,0.0,0.0,96,0.00,,SKC,0.00,VWS V14.01,2013-11-06 06:16:00,
2013-11-06 00:21:00,32.3,31.3,30.05,NW,318,0.0,0.0,96,0.00,,SKC,0.00,VWS V14.01,2013-11-06 06:21:00,
2013-11-06 00:26:00,32.2,31.2,30.05,NW,318,0.0,0.0,96,0.00,,SKC,0.00,VWS V14.01,2013-11-06 06:26:00,
2013-11-06 00:31:00,32.2,31.2,30.05,NW,318,0.0,0.0,96,0.00,,SKC,0.00,VWS V14.01,2013-11-06 06:31:00,
2013-11-06 00:36:00,32.2,31.2,30.05,NW,318,0.0,0.0,96,0.00,,SKC,0.00,VWS V14.01,2013-11-06 06:36:00,
2013-11-06 00:41:00,32.2,31.2,30.05,NW,318,0.0,0.0,96,0.00,,SKC,0.00,VWS V14.01,2013-11-06 06:41:00,
2013-11-06 00:46:00,32.2,31.2,30.05,NW,318,0.0,0.0,96,0.00,,SKC,0.00,VWS V14.01,2013-11-06 06:46:00,
2013-11-06 00:51:00,32.2,31.2,30.05,NW,318,0.0,0.0,96,0.00,,SKC,0.00,VWS V14.01,2013-11-06 06:51:00,
2013-11-06 00:56:00,32.1,31.1,30.05,NW,318,0.0,0.0,96,0.00,,SKC,0.00,VWS V14.01,2013-11-06 06:56:00,
2013-11-06 01:01:00,32.1,31.1,30.04,NW,318,0.0,0.0,96,0.00,,SKC,0.00,VWS V14.01,2013-11-06 07:01:00,
2013-11-06 01:06:00,32.1,31.1,30.04,NW,318,0.0,0.0,96,0.00,,SKC,0.00,VWS V14.01,2013-11-06 07:06:00,
2013-11-06 01:11:00,32.1,31.4,30.04,NW,318,0.0,0.0,97,0.00,,SKC,0.00,VWS V14.01,2013-11-06 07:11:00,
2013-11-06 01:16:00,32.1,31.4,30.04,NW,318,0.0,0.0,97,0.00,,SKC,0.00,VWS V14.01,2013-11-06 07:16:00,
2013-11-06 01:21:00,32.0,31.2,30.04,NW,318,0.0,0.0,97,0.00,,SKC,0.00,VWS V14.01,2013-11-06 07:21:00,
2013-11-06 01:26:00,32.0,31.2,30.04,NW,318,0.0,0.0,97,0.00,,SKC,0.00,VWS V14.01,2013-11-06 07:26:00,
2013-11-06 01:31:00,32.0,31.2,30.04,NW,318,0.0,0.0,97,0.00,,SKC,0.00,VWS V14.01,2013-11-06 07:31:00,
2013-11-06 01:36:00,32.0,31.2,30.05,NW,318,0.0,0.0,97,0.00,,SKC,0.00,VWS V14.01,2013-11-06 07:36:00,
2013-11-06 01:41:00,32.0,31.2,30.05,NW,318,0.0,0.0,97,0.00,,SKC,0.00,VWS V14.01,2013-11-06 07:41:00,
2013-11-06 01:46:00,31.9,31.1,30.05,NW,318,0.0,0.0,97,0.00,,SKC,0.00,VWS V14.01,2013-11-06 07:46:00,
2013-11-06 01:51:00,31.9,31.1,30.05,NW,318,0.0,0.0,97,0.00,,SKC,0.00,VWS V14.01,2013-11-06 07:51:00,
2013-11-06 01:56:00,31.9,30.9,30.05,NW,318,0.0,0.0,96,0.00,,SKC,0.00,VWS V14.01,2013-11-06 07:56:00,
2013-11-06 02:01:00,31.8,30.8,30.05,NW,318,0.0,0.0,96,0.00,,SKC,0.00,VWS V14.01,2013-11-06 08:01:00,
2013-11-06 02:06:00,31.7,30.7,30.05,NW,318,0.0,0.0,96,0.00,,SKC,0.00,VWS V14.01,2013-11-06 08:06:00,
2013-11-06 02:11:00,31.7,30.7,30.05,NW,318,0.0,0.0,96,0.00,,SKC,0.00,VWS V14.01,2013-11-06 08:11:00,
2013-11-06 02:16:00,31.6,30.6,30.05,NW,318,0.0,0.0,96,0.00,,SKC,0.00,VWS V14.01,2013-11-06 08:16:00,
2013-11-06 02:21:00,31.6,30.6,30.05,NW,318,0.0,0.0,96,0.00,,SKC,0.00,VWS V14.01,2013-11-06 08:21:00,
2013-11-06 02:26:00,31.6,30.6,30.05,NW,318,0.0,0.0,96,0.00,,SKC,0.00,VWS V14.01,2013-11-06 08:26:00,
2013-11-06 02:31:00,31.5,30.8,30.04,NW,318,0.0,0.0,97,0.00,,SKC,0.00,VWS V14.01,2013-11-06 08:31:00,
2013-11-06 02:36:00,31.5,30.8,30.04,NW,318,0.0,0.0,97,0.00,,SKC,0.00,VWS V14.01,2013-11-06 08:36:00,
2013-11-06 02:41:00,31.5,30.8,30.04,NW,318,0.0,0.0,97,0.00,,SKC,0.00,VWS V14.01,2013-11-06 08:41:00,
2013-11-06 02:46:00,31.5,30.8,30.04,NW,318,0.0,0.0,97,0.00,,SKC,0.00,VWS V14.01,2013-11-06 08:46:00,
2013-11-06 02:51:00,31.5,30.8,30.04,NW,317,0.0,0.0,97,0.00,,SKC,0.00,VWS V14.01,2013-11-06 08:51:00,
2013-11-06 02:56:00,31.4,30.6,30.04,NW,317,0.0,0.0,97,0.00,,SKC,0.00,VWS V14.01,2013-11-06 08:56:00,
2013-11-06 03:01:00,31.4,30.6,30.04,NW,317,0.0,0.0,97,0.00,,SKC,0.00,VWS V14.01,2013-11-06 09:01:00,
2013-11-06 03:06:00,31.4,30.6,30.05,NW,317,0.0,0.0,97,0.00,,SKC,0.00,VWS V14.01,2013-11-06 09:06:00,
2013-11-06 03:11:00,31.4,30.6,30.05,NW,317,0.0,0.0,97,0.00,,SKC,0.00,VWS V14.01,2013-11-06 09:11:00,
2013-11-06 03:16:00,31.3,30.5,30.04,NW,317,0.0,0.0,97,0.00,,SKC,0.00,VWS V14.01,2013-11-06 09:16:00,
2013-11-06 03:21:00,31.3,30.5,30.04,NW,317,0.0,0.0,97,0.00,,SKC,0.00,VWS V14.01,2013-11-06 09:21:00,
2013-11-06 03:26:00,31.2,30.2,30.04,NW,317,0.0,0.0,96,0.00,,SKC,0.00,VWS V14.01,2013-11-06 09:26:00,
2013-11-06 03:31:00,31.2,30.2,30.04,NW,317,0.0,0.0,96,0.00,,SKC,0.00,VWS V14.01,2013-11-06 09:31:00,
2013-11-06 03:36:00,31.2,30.2,30.03,NW,317,0.0,0.0,96,0.00,,SKC,0.00,VWS V14.01,2013-11-06 09:36:00,
2013-11-06 03:41:00,31.1,30.1,30.03,NW,317,0.0,0.0,96,0.00,,SKC,0.00,VWS V14.01,2013-11-06 09:41:00,
2013-11-06 03:46:00,31.1,30.1,30.04,NW,317,0.0,0.0,96,0.00,,SKC,0.00,VWS V14.01,2013-11-06 09:46:00,
2013-11-06 03:51:00,31.0,30.0,30.04,NW,317,0.0,0.0,96,0.00,,SKC,0.00,VWS V14.01,2013-11-06 09:51:00,
2013-11-06 03:56:00,31.0,30.0,30.04,NW,317,0.0,0.0,96,0.00,,SKC,0.00,VWS V14.01,2013-11-06 09:56:00,
2013-11-06 04:01:00,31.0,30.0,30.03,NW,317,0.0,0.0,96,0.00,,SKC,0.00,VWS V14.01,2013-11-06 10:01:00,
2013-11-06 04:06:00,30.9,29.9,30.04,NW,317,0.0,0.0,96,0.00,,SKC,0.00,VWS V14.01,2013-11-06 10:06:00,
2013-11-06 04:11:00,30.9,29.9,30.04,NW,317,0.0,0.0,96,0.00,,SKC,0.00,VWS V14.01,2013-11-06 10:11:00,
2013-11-06 04:16:00,30.8,29.8,30.03,NW,317,0.0,0.0,96,0.00,,SKC,0.00,VWS V14.01,2013-11-06 10:16:00,
2013-11-06 04:21:00,30.7,29.7,30.03,NW,317,0.0,0.0,96,0.00,,SKC,0.00,VWS V14.01,2013-11-06 10:21:00,
2013-11-06 04:26:00,30.7,29.7,30.03,NW,317,0.0,0.0,96,0.00,,SKC,0.00,VWS V14.01,2013-11-06 10:26:00,
2013-11-06 04:31:00,30.7,30.0,30.03,NW,317,0.0,0.0,97,0.00,,SKC,0.00,VWS V14.01,2013-11-06 10:31:00,
2013-11-06 04:36:00,30.7,29.7,30.03,NW,317,0.0,0.0,96,0.00,,SKC,0.00,VWS V14.01,2013-11-06 10:36:00,
2013-11-06 04:41:00,30.7,29.7,30.03,NW,317,0.0,0.0,96,0.00,,SKC,0.00,VWS V14.01,2013-11-06 10:41:00,
2013-11-06 04:46:00,30.7,29.7,30.03,NW,317,0.0,0.0,96,0.00,,SKC,0.00,VWS V14.01,2013-11-06 10:46:00,
2013-11-06 04:51:00,30.6,29.6,30.03,NW,317,0.0,0.0,96,0.00,,SKC,0.00,VWS V14.01,2013-11-06 10:51:00,
2013-11-06 04:56:00,30.6,29.6,30.03,NW,317,0.0,0.0,96,0.00,,SKC,0.00,VWS V14.01,2013-11-06 10:56:00,
2013-11-06 05:01:00,30.6,29.6,30.03,NW,317,0.0,0.0,96,0.00,,SKC,0.00,VWS V14.01,2013-11-06 11:01:00,
2013-11-06 05:06:00,30.6,29.6,30.03,NW,317,0.0,0.0,96,0.00,,SKC,0.00,VWS V14.01,2013-11-06 11:06:00,
2013-11-06 05:11:00,30.5,29.8,30.03,NW,317,0.0,0.0,97,0.00,,SKC,0.00,VWS V14.01,2013-11-06 11:11:00,
2013-11-06 05:16:00,30.5,29.5,30.03,NW,317,0.0,0.0,96,0.00,,SKC,0.00,VWS V14.01,2013-11-06 11:16:00,
2013-11-06 05:21:00,30.4,29.4,30.03,NW,317,0.0,0.0,96,0.00,,SKC,0.00,VWS V14.01,2013-11-06 11:21:00,
2013-11-06 05:26:00,30.3,29.3,30.03,NW,317,0.0,0.0,96,0.00,,SKC,0.00,VWS V14.01,2013-11-06 11:26:00,
2013-11-06 05:31:00,30.3,29.3,30.03,NW,317,0.0,0.0,96,0.00,,SKC,0.00,VWS V14.01,2013-11-06 11:31:00,
2013-11-06 05:36:00,30.2,29.2,30.03,NW,317,0.0,0.0,96,0.00,,SKC,0.00,VWS V14.01,2013-11-06 11:36:00,
2013-11-06 05:41:00,30.1,29.1,30.03,NW,317,0.0,0.0,96,0.00,,SKC,0.00,VWS V14.01,2013-11-06 11:41:00,
2013-11-06 05:46:00,30.0,29.0,30.03,NW,317,0.0,0.0,96,0.00,,SKC,0.00,VWS V14.01,2013-11-06 11:46:00,
2013-11-06 05:51:00,29.9,28.9,30.03,NW,317,0.0,0.0,96,0.00,,SKC,0.00,VWS V14.01,2013-11-06 11:51:00,
2013-11-06 05:56:00,29.7,28.7,30.03,NW,317,0.0,0.0,96,0.00,,SKC,0.00,VWS V14.01,2013-11-06 11:56:00,
2013-11-06 06:01:00,29.6,28.6,30.03,NW,317,0.0,0.0,96,0.00,,SKC,0.00,VWS V14.01,2013-11-06 12:01:00,
2013-11-06 06:06:00,29.5,28.5,30.03,NW,317,0.0,0.0,96,0.00,,SKC,0.00,VWS V14.01,2013-11-06 12:06:00,
2013-11-06 06:11:00,29.3,28.3,30.03,NW,317,0.0,0.0,96,0.00,,SKC,0.00,VWS V14.01,2013-11-06 12:11:00,
2013-11-06 06:16:00,29.2,28.2,30.03,NW,317,0.0,0.0,96,0.00,,SKC,0.00,VWS V14.01,2013-11-06 12:16:00,
2013-11-06 06:21:00,29.0,28.0,30.03,NW,317,0.0,0.0,96,0.00,,SKC,0.00,VWS V14.01,2013-11-06 12:21:00,
2013-11-06 06:26:00,28.8,27.8,30.03,NW,317,0.0,0.0,96,0.00,,SKC,0.00,VWS V14.01,2013-11-06 12:26:00,
2013-11-06 06:31:00,28.7,27.7,30.03,NW,317,0.0,0.0,96,0.00,,SKC,0.00,VWS V14.01,2013-11-06 12:31:00,
2013-11-06 06:36:00,28.4,27.4,30.02,NW,317,0.0,0.0,96,0.00,,SKC,0.00,VWS V14.01,2013-11-06 12:36:00,
2013-11-06 06:41:00,28.1,26.9,30.03,NW,317,0.0,0.0,95,0.00,,SKC,0.00,VWS V14.01,2013-11-06 12:41:00,
2013-11-06 06:46:00,27.9,26.7,30.03,NW,317,0.0,0.0,95,0.00,,SKC,0.00,VWS V14.01,2013-11-06 12:46:00,
2013-11-06 06:51:00,27.6,26.4,30.03,NW,317,0.0,0.0,95,0.00,,SKC,0.00,VWS V14.01,2013-11-06 12:51:00,
2013-11-06 06:56:00,27.4,26.2,30.03,NW,317,0.0,0.0,95,0.00,,SKC,0.00,VWS V14.01,2013-11-06 12:56:00,
2013-11-06 07:01:00,27.1,25.9,30.03,NW,317,0.0,0.0,95,0.00,,SKC,0.00,VWS V14.01,2013-11-06 13:01:00,
2013-11-06 07:06:00,26.8,25.6,30.03,NW,317,0.0,0.0,95,0.00,,SKC,0.00,VWS V14.01,2013-11-06 13:06:00,
2013-11-06 07:11:00,26.5,25.3,30.02,NW,317,0.0,0.0,95,0.00,,SKC,0.00,VWS V14.01,2013-11-06 13:11:00,
2013-11-06 07:16:00,26.2,25.0,30.02,NW,317,0.0,0.0,95,0.00,,SKC,0.00,VWS V14.01,2013-11-06 13:16:00,
2013-11-06 07:21:00,26.1,24.9,30.03,NW,317,0.0,0.0,95,0.00,,SKC,0.00,VWS V14.01,2013-11-06 13:21:00,
2013-11-06 07:26:00,26.0,24.8,30.03,NW,317,0.0,0.0,95,0.00,,SKC,0.00,VWS V14.01,2013-11-06 13:26:00,
2013-11-06 07:31:00,26.1,24.9,30.03,NW,317,0.0,0.0,95,0.00,,SKC,0.00,VWS V14.01,2013-11-06 13:31:00,
2013-11-06 07:36:00,26.2,25.2,30.04,NW,317,0.0,0.0,96,0.00,,SKC,0.00,VWS V14.01,2013-11-06 13:36:00,
2013-11-06 07:41:00,26.3,25.3,30.04,NW,317,0.0,0.0,96,0.00,,SKC,0.00,VWS V14.01,2013-11-06 13:41:00,
2013-11-06 07:46:00,26.5,25.5,30.04,NW,317,0.0,0.0,96,0.00,,SKC,0.00,VWS V14.01,2013-11-06 13:46:00,
2013-11-06 07:51:00,26.7,25.7,30.04,NW,317,0.0,0.0,96,0.00,,SKC,0.00,VWS V14.01,2013-11-06 13:51:00,
2013-11-06 07:56:00,26.9,25.9,30.04,NW,317,0.0,0.0,96,0.00,,SKC,0.00,VWS V14.01,2013-11-06 13:56:00,
2013-11-06 08:01:00,27.1,26.1,30.04,NW,317,0.0,0.0,96,0.00,,SKC,0.00,VWS V14.01,2013-11-06 14:01:00,
2013-11-06 08:06:00,27.3,26.3,30.04,NW,317,0.0,0.0,96,0.00,,SKC,0.00,VWS V14.01,2013-11-06 14:06:00,
2013-11-06 08:11:00,27.6,26.6,30.04,NW,317,0.0,0.0,96,0.00,,SKC,0.00,VWS V14.01,2013-11-06 14:11:00,
2013-11-06 08:16:00,27.8,26.8,30.04,NW,317,0.0,0.0,96,0.00,,SKC,0.00,VWS V14.01,2013-11-06 14:16:00,
2013-11-06 08:21:00,28.1,27.1,30.04,NW,317,0.0,0.0,96,0.01,,SKC,0.01,VWS V14.01,2013-11-06 14:21:00,
2013-11-06 08:26:00,28.3,27.3,30.05,NW,317,0.0,0.0,96,0.01,,SKC,0.01,VWS V14.01,2013-11-06 14:26:00,
2013-11-06 08:31:00,28.5,27.5,30.05,NW,317,0.0,0.0,96,0.01,,SKC,0.01,VWS V14.01,2013-11-06 14:31:00,
2013-11-06 08:36:00,28.7,27.5,30.05,NW,317,0.0,0.0,95,0.01,,SKC,0.01,VWS V14.01,2013-11-06 14:36:00,
2013-11-06 08:41:00,29.0,27.8,30.05,NW,317,0.0,0.0,95,0.02,,SKC,0.02,VWS V14.01,2013-11-06 14:41:00,
2013-11-06 08:46:00,29.2,28.0,30.05,NW,317,0.0,0.0,95,0.02,,SKC,0.02,VWS V14.01,2013-11-06 14:46:00,
2013-11-06 08:51:00,29.3,27.8,30.05,NW,317,0.0,0.0,94,0.03,,SKC,0.03,VWS V14.01,2013-11-06 14:51:00,
2013-11-06 08:56:00,29.5,28.0,30.05,NW,317,0.0,0.0,94,0.04,,SKC,0.04,VWS V14.01,2013-11-06 14:56:00,
2013-11-06 09:01:00,29.7,28.2,30.05,NW,317,0.0,0.0,94,0.06,,SKC,0.06,VWS V14.01,2013-11-06 15:01:00,
2013-11-06 09:06:00,29.8,28.3,30.05,NW,317,0.0,0.0,94,0.07,,SKC,0.07,VWS V14.01,2013-11-06 15:06:00,
2013-11-06 09:11:00,29.9,28.1,30.05,NW,317,0.0,0.0,93,0.08,,SKC,0.08,VWS V14.01,2013-11-06 15:11:00,
2013-11-06 09:16:00,30.1,28.3,30.05,NW,317,0.0,0.0,93,0.08,,SKC,0.08,VWS V14.01,2013-11-06 15:16:00,
2013-11-06 09:21:00,30.2,28.4,30.05,West,267,0.0,6.0,93,0.09,,SKC,0.09,VWS V14.01,2013-11-06 15:21:00,
2013-11-06 09:26:00,30.3,28.5,30.05,WNW,302,0.0,6.0,93,0.10,,SKC,0.10,VWS V14.01,2013-11-06 15:26:00,
2013-11-06 09:31:00,30.5,28.7,30.05,NW,318,0.0,4.0,93,0.10,,SKC,0.11,VWS V14.01,2013-11-06 15:31:00,
2013-11-06 09:36:00,30.7,28.9,30.06,NW,319,0.0,4.0,93,0.11,,SKC,0.12,VWS V14.01,2013-11-06 15:36:00,
2013-11-06 09:41:00,30.8,28.8,30.06,WNW,291,0.0,6.0,92,0.12,,SKC,0.13,VWS V14.01,2013-11-06 15:41:00,
2013-11-06 09:46:00,30.9,28.6,30.06,WNW,294,0.0,7.0,91,0.12,,SKC,0.13,VWS V14.01,2013-11-06 15:46:00,
2013-11-06 09:51:00,31.1,29.0,30.06,NNW,340,0.0,7.0,92,0.13,,SKC,0.14,VWS V14.01,2013-11-06 15:51:00,
2013-11-06 09:56:00,31.3,29.0,30.06,SW,229,2.0,7.0,91,0.14,,SKC,0.15,VWS V14.01,2013-11-06 15:56:00,
2013-11-06 10:01:00,31.4,29.1,30.05,NW,308,0.0,0.0,91,0.11,,SKC,0.16,VWS V14.01,2013-11-06 16:01:00,
2013-11-06 10:06:00,31.6,29.0,30.05,NNW,337,0.0,4.0,90,0.11,,SKC,0.16,VWS V14.01,2013-11-06 16:06:00,
2013-11-06 10:11:00,31.8,29.2,30.05,West,264,0.0,4.0,90,0.12,,SKC,0.17,VWS V14.01,2013-11-06 16:11:00,
2013-11-06 10:16:00,31.9,29.3,30.05,West,272,0.0,4.0,90,0.13,,SKC,0.18,VWS V14.01,2013-11-06 16:16:00,
2013-11-06 10:21:00,32.0,29.1,30.06,West,263,1.0,4.0,89,0.14,,SKC,0.19,VWS V14.01,2013-11-06 16:21:00,
2013-11-06 10:26:00,32.1,29.0,30.06,WSW,246,0.0,5.0,88,0.15,,SKC,0.20,VWS V14.01,2013-11-06 16:26:00,
2013-11-06 10:31:00,32.1,29.2,30.05,West,260,0.0,3.0,89,0.10,,SKC,0.20,VWS V14.01,2013-11-06 16:31:00,
2013-11-06 10:36:00,32.2,28.8,30.05,WNW,302,0.0,6.0,87,0.11,,SKC,0.21,VWS V14.01,2013-11-06 16:36:00,
2013-11-06 10:41:00,32.3,28.9,30.05,West,281,0.0,6.0,87,0.11,,SKC,0.21,VWS V14.01,2013-11-06 16:41:00,
2013-11-06 10:46:00,32.3,28.6,30.06,WSW,251,0.0,6.0,86,0.12,,SKC,0.22,VWS V14.01,2013-11-06 16:46:00,
2013-11-06 10:51:00,32.4,28.7,30.06,West,261,2.0,6.0,86,0.12,,SKC,0.22,VWS V14.01,2013-11-06 16:51:00,
2013-11-06 10:56:00,32.4,28.1,30.06,West,266,2.0,6.0,84,0.13,,SKC,0.23,VWS V14.01,2013-11-06 16:56:00,
2013-11-06 11:01:00,32.4,28.1,30.06,West,259,2.0,5.0,84,0.08,,SKC,0.23,VWS V14.01,2013-11-06 17:01:00,
2013-11-06 11:05:00,32.4,27.8,30.06,West,277,0.0,5.0,83,0.09,,SKC,0.24,VWS V14.01,2013-11-06 17:05:00,
2013-11-06 11:10:00,32.6,28.3,30.06,WSW,246,3.0,5.0,84,0.09,,SKC,0.24,VWS V14.01,2013-11-06 17:10:00,
2013-11-06 11:15:00,32.7,28.4,30.06,WNW,288,0.0,5.0,84,0.09,,SKC,0.24,VWS V14.01,2013-11-06 17:15:00,
2013-11-06 11:20:00,32.9,28.3,30.06,West,275,0.0,5.0,83,0.10,,SKC,0.25,VWS V14.01,2013-11-06 17:20:00,
2013-11-06 11:25:00,33.2,29.2,30.06,West,264,0.0,5.0,85,0.10,,SKC,0.25,VWS V14.01,2013-11-06 17:25:00,
2013-11-06 11:31:00,33.4,29.1,30.06,SW,224,5.0,6.0,84,0.06,,SKC,0.26,VWS V14.01,2013-11-06 17:31:00,
2013-11-06 11:36:00,33.6,28.7,30.06,WSW,248,0.0,7.0,82,0.06,,SKC,0.26,VWS V14.01,2013-11-06 17:36:00,
2013-11-06 11:41:00,33.7,28.5,30.06,WSW,247,3.0,7.0,81,0.06,,SKC,0.26,VWS V14.01,2013-11-06 17:41:00,
2013-11-06 11:46:00,34.0,29.4,30.06,WNW,282,0.0,7.0,83,0.06,,SKC,0.26,VWS V14.01,2013-11-06 17:46:00,
2013-11-06 11:51:00,34.3,30.0,30.06,SSW,199,0.0,7.0,84,0.07,,SKC,0.27,VWS V14.01,2013-11-06 17:51:00,
2013-11-06 11:56:00,34.5,30.5,30.06,SW,215,0.0,7.0,85,0.07,,SKC,0.27,VWS V14.01,2013-11-06 17:56:00,
2013-11-06 12:01:00,34.7,30.1,30.06,WNW,290,4.0,6.0,83,0.05,,SKC,0.28,VWS V14.01,2013-11-06 18:01:00,
2013-11-06 12:06:00,34.8,29.9,30.06,West,259,3.0,6.0,82,0.05,,SKC,0.28,VWS V14.01,2013-11-06 18:06:00,
2013-11-06 12:11:00,34.9,29.1,30.06,NW,309,2.0,8.0,79,0.05,,SKC,0.28,VWS V14.01,2013-11-06 18:11:00,
2013-11-06 12:16:00,35.0,28.9,30.06,West,275,0.0,10.0,78,0.05,,SKC,0.28,VWS V14.01,2013-11-06 18:16:00,
2013-11-06 12:21:00,35.1,28.9,30.06,West,261,0.0,10.0,78,0.05,,SKC,0.28,VWS V14.01,2013-11-06 18:21:00,
2013-11-06 12:25:00,35.2,28.4,30.06,West,276,2.0,10.0,76,0.06,,SKC,0.29,VWS V14.01,2013-11-06 18:25:00,
2013-11-06 12:30:00,35.3,28.2,30.06,West,276,4.0,7.0,75,0.04,,SKC,0.29,VWS V14.01,2013-11-06 18:30:00,
2013-11-06 12:35:00,35.3,28.5,30.06,WSW,244,3.0,7.0,76,0.04,,SKC,0.29,VWS V14.01,2013-11-06 18:35:00,
2013-11-06 12:40:00,35.5,29.6,30.06,WSW,248,4.0,7.0,79,0.04,,SKC,0.29,VWS V14.01,2013-11-06 18:40:00,
2013-11-06 12:46:00,35.7,27.6,30.06,NW,318,4.0,7.0,72,0.05,,SKC,0.30,VWS V14.01,2013-11-06 18:46:00,
2013-11-06 12:51:00,35.8,27.7,30.06,WNW,283,4.0,10.0,72,0.05,,SKC,0.30,VWS V14.01,2013-11-06 18:51:00,
2013-11-06 12:56:00,35.9,28.1,30.06,West,260,0.0,10.0,73,0.05,,SKC,0.30,VWS V14.01,2013-11-06 18:56:00,
2013-11-06 13:01:00,35.9,28.1,30.06,West,275,1.0,8.0,73,0.02,,SKC,0.30,VWS V14.01,2013-11-06 19:01:00,
2013-11-06 13:05:00,36.1,27.6,30.06,NNW,328,2.0,8.0,71,0.02,,SKC,0.30,VWS V14.01,2013-11-06 19:05:00,
2013-11-06 13:10:00,36.3,28.1,30.07,West,271,2.0,8.0,72,0.02,,SKC,0.30,VWS V14.01,2013-11-06 19:10:00,
2013-11-06 13:15:00,36.3,28.1,30.06,West,273,0.0,8.0,72,0.02,,SKC,0.30,VWS V14.01,2013-11-06 19:15:00,
2013-11-06 13:20:00,36.4,27.9,30.06,SW,233,0.0,8.0,71,0.02,,SKC,0.30,VWS V14.01,2013-11-06 19:20:00,
2013-11-06 13:25:00,36.7,27.9,30.06,WSW,244,2.0,12.0,70,0.02,,SKC,0.30,VWS V14.01,2013-11-06 19:25:00,
2013-11-06 13:30:00,36.9,28.7,30.06,SW,221,4.0,4.0,72,0.01,,SKC,0.30,VWS V14.01,2013-11-06 19:30:00,
2013-11-06 13:36:00,36.9,28.7,30.06,WSW,252,0.0,5.0,72,0.01,,SKC,0.30,VWS V14.01,2013-11-06 19:36:00,
2013-11-06 13:40:00,36.8,28.3,30.06,WNW,288,0.0,8.0,71,0.01,,SKC,0.30,VWS V14.01,2013-11-06 19:40:00,
2013-11-06 13:45:00,36.6,27.8,30.07,WSW,242,1.0,8.0,70,0.01,,SKC,0.30,VWS V14.01,2013-11-06 19:45:00,
2013-11-06 13:50:00,36.8,28.3,30.07,SW,218,4.0,8.0,71,0.01,,SKC,0.30,VWS V14.01,2013-11-06 19:50:00,
2013-11-06 13:55:00,37.0,28.5,30.07,West,267,4.0,8.0,71,0.01,,SKC,0.30,VWS V14.01,2013-11-06 19:55:00,
2013-11-06 14:00:00,37.1,28.6,30.07,WSW,255,2.0,5.0,71,0.00,,SKC,0.30,VWS V14.01,2013-11-06 20:00:00,
2013-11-06 14:05:00,37.1,28.9,30.07,SW,221,1.0,5.0,72,0.00,,SKC,0.30,VWS V14.01,2013-11-06 20:05:00,
2013-11-06 14:10:00,37.0,28.5,30.06,WSW,248,1.0,5.0,71,0.00,,SKC,0.30,VWS V14.01,2013-11-06 20:10:00,
2013-11-06 14:15:00,37.2,28.3,30.07,WSW,240,0.0,5.0,70,0.00,,SKC,0.30,VWS V14.01,2013-11-06 20:15:00,
2013-11-06 14:20:00,37.6,29.1,30.07,West,279,0.0,5.0,71,0.00,,SKC,0.30,VWS V14.01,2013-11-06 20:20:00,
2013-11-06 14:25:00,37.9,29.0,30.07,West,267,0.0,6.0,70,0.00,,SKC,0.30,VWS V14.01,2013-11-06 20:25:00,
2013-11-06 14:30:00,37.9,29.0,30.07,West,264,2.0,7.0,70,0.00,,SKC,0.30,VWS V14.01,2013-11-06 20:30:00,
2013-11-06 14:35:00,37.9,28.6,30.07,WNW,294,6.0,10.0,69,0.00,,SKC,0.30,VWS V14.01,2013-11-06 20:35:00,
2013-11-06 14:40:00,37.9,28.6,30.07,WNW,284,5.0,10.0,69,0.00,,SKC,0.30,VWS V14.01,2013-11-06 20:40:00,
2013-11-06 14:45:00,38.0,29.8,30.07,WNW,293,0.0,10.0,72,0.00,,SKC,0.30,VWS V14.01,2013-11-06 20:45:00,
2013-11-06 14:50:00,37.8,28.9,30.07,NW,304,11.0,11.0,70,0.00,,SKC,0.30,VWS V14.01,2013-11-06 20:50:00,
2013-11-06 14:55:00,37.7,28.8,30.07,WNW,300,0.0,11.0,70,0.00,,SKC,0.30,VWS V14.01,2013-11-06 20:55:00,
2013-11-06 15:00:00,37.5,29.3,30.08,WNW,300,0.0,0.0,72,0.00,,SKC,0.30,VWS V14.01,2013-11-06 21:00:00,
2013-11-06 15:06:00,37.3,29.8,30.08,West,276,0.0,4.0,74,0.00,,SKC,0.30,VWS V14.01,2013-11-06 21:06:00,
2013-11-06 15:11:00,37.2,29.4,30.08,WSW,244,2.0,5.0,73,0.00,,SKC,0.30,VWS V14.01,2013-11-06 21:11:00,
2013-11-06 15:16:00,37.3,29.1,30.08,WSW,246,0.0,5.0,72,0.00,,SKC,0.30,VWS V14.01,2013-11-06 21:16:00,
2013-11-06 15:21:00,37.3,28.8,30.08,WSW,246,0.0,5.0,71,0.00,,SKC,0.30,VWS V14.01,2013-11-06 21:21:00,
2013-11-06 15:26:00,37.3,28.8,30.08,SW,235,1.0,5.0,71,0.00,,SKC,0.30,VWS V14.01,2013-11-06 21:26:00,
2013-11-06 15:31:00,37.3,28.8,30.08,SW,236,0.0,4.0,71,0.00,,SKC,0.30,VWS V14.01,2013-11-06 21:31:00,
2013-11-06 15:36:00,37.3,28.8,30.09,WSW,244,1.0,4.0,71,0.00,,SKC,0.30,VWS V14.01,2013-11-06 21:36:00,
2013-11-06 15:41:00,37.3,28.8,30.09,WSW,246,3.0,4.0,71,0.00,,SKC,0.30,VWS V14.01,2013-11-06 21:41:00,
2013-11-06 15:46:00,37.2,29.4,30.09,WSW,242,0.0,4.0,73,0.00,,SKC,0.30,VWS V14.01,2013-11-06 21:46:00,
2013-11-06 15:51:00,37.1,28.6,30.09,WSW,240,0.0,4.0,71,0.00,,SKC,0.30,VWS V14.01,2013-11-06 21:51:00,
2013-11-06 15:56:00,37.0,29.2,30.09,WSW,240,1.0,4.0,73,0.00,,SKC,0.30,VWS V14.01,2013-11-06 21:56:00,
2013-11-06 16:01:00,36.9,28.7,30.09,WSW,240,0.0,1.0,72,0.00,,SKC,0.30,VWS V14.01,2013-11-06 22:01:00,
2013-11-06 16:06:00,36.9,28.7,30.09,WSW,240,0.0,2.0,72,0.00,,SKC,0.30,VWS V14.01,2013-11-06 22:06:00,
2013-11-06 16:11:00,36.9,29.1,30.09,WSW,240,0.0,2.0,73,0.00,,SKC,0.30,VWS V14.01,2013-11-06 22:11:00,
2013-11-06 16:16:00,36.9,29.1,30.09,WSW,250,2.0,3.0,73,0.00,,SKC,0.30,VWS V14.01,2013-11-06 22:16:00,
2013-11-06 16:21:00,37.0,29.2,30.09,WSW,250,0.0,3.0,73,0.00,,SKC,0.30,VWS V14.01,2013-11-06 22:21:00,
2013-11-06 16:26:00,36.8,29.0,30.09,WSW,250,0.0,3.0,73,0.00,,SKC,0.30,VWS V14.01,2013-11-06 22:26:00,
2013-11-06 16:31:00,36.6,29.4,30.09,WSW,249,0.0,0.0,75,0.00,,SKC,0.30,VWS V14.01,2013-11-06 22:31:00,
2013-11-06 16:36:00,36.3,28.8,30.09,WSW,249,0.0,2.0,74,0.00,,SKC,0.30,VWS V14.01,2013-11-06 22:36:00,
2013-11-06 16:41:00,36.2,29.7,30.09,WSW,249,0.0,2.0,77,0.00,,SKC,0.30,VWS V14.01,2013-11-06 22:41:00,
2013-11-06 16:46:00,36.0,29.2,30.09,WSW,249,0.0,2.0,76,0.00,,SKC,0.30,VWS V14.01,2013-11-06 22:46:00,
2013-11-06 16:51:00,35.7,29.5,30.09,WSW,249,0.0,2.0,78,0.00,,SKC,0.30,VWS V14.01,2013-11-06 22:51:00,
2013-11-06 16:56:00,35.3,30.1,30.09,WSW,249,0.0,2.0,81,0.00,,SKC,0.30,VWS V14.01,2013-11-06 22:56:00,
2013-11-06 17:01:00,34.8,29.9,30.09,WSW,249,0.0,0.0,82,0.00,,SKC,0.30,VWS V14.01,2013-11-06 23:01:00,
2013-11-06 17:06:00,34.2,29.9,30.09,WSW,249,0.0,0.0,84,0.00,,SKC,0.30,VWS V14.01,2013-11-06 23:06:00,
2013-11-06 17:11:00,33.7,29.4,30.09,WSW,249,0.0,0.0,84,0.00,,SKC,0.30,VWS V14.01,2013-11-06 23:11:00,
2013-11-06 17:16:00,33.1,29.1,30.09,WSW,249,0.0,0.0,85,0.00,,SKC,0.30,VWS V14.01,2013-11-06 23:16:00,
2013-11-06 17:21:00,32.6,29.2,30.09,WSW,249,0.0,0.0,87,0.00,,SKC,0.30,VWS V14.01,2013-11-06 23:21:00,
2013-11-06 17:26:00,32.2,29.0,30.09,WSW,249,0.0,0.0,88,0.00,,SKC,0.30,VWS V14.01,2013-11-06 23:26:00,
2013-11-06 17:31:00,31.9,28.8,30.10,WSW,249,0.0,0.0,88,0.00,,SKC,0.30,VWS V14.01,2013-11-06 23:31:00,
2013-11-06 17:36:00,31.7,28.8,30.09,WSW,249,0.0,0.0,89,0.00,,SKC,0.30,VWS V14.01,2013-11-06 23:36:00,
2013-11-06 17:41:00,31.5,28.9,30.10,WSW,249,0.0,0.0,90,0.00,,SKC,0.30,VWS V14.01,2013-11-06 23:41:00,
2013-11-06 17:46:00,31.3,29.0,30.10,WSW,249,0.0,0.0,91,0.00,,SKC,0.30,VWS V14.01,2013-11-06 23:46:00,
2013-11-06 17:51:00,31.2,28.9,30.10,WSW,249,0.0,0.0,91,0.00,,SKC,0.30,VWS V14.01,2013-11-06 23:51:00,
2013-11-06 17:56:00,31.0,28.7,30.10,WSW,249,0.0,0.0,91,0.00,,SKC,0.30,VWS V14.01,2013-11-06 23:56:00,
2013-11-06 18:01:00,30.8,28.5,30.10,WSW,249,0.0,0.0,91,0.00,,SKC,0.30,VWS V14.01,2013-11-07 00:01:00,
2013-11-06 18:06:00,30.6,28.3,30.10,WSW,249,0.0,0.0,91,0.00,,SKC,0.30,VWS V14.01,2013-11-07 00:06:00,
2013-11-06 18:11:00,30.3,28.0,30.10,WSW,249,0.0,0.0,91,0.00,,SKC,0.30,VWS V14.01,2013-11-07 00:11:00,
2013-11-06 18:16:00,30.0,27.7,30.11,WSW,249,0.0,0.0,91,0.00,,SKC,0.30,VWS V14.01,2013-11-07 00:16:00,
2013-11-06 18:21:00,29.8,27.5,30.10,WSW,249,0.0,0.0,91,0.00,,SKC,0.30,VWS V14.01,2013-11-07 00:21:00,
2013-11-06 18:26:00,29.7,27.7,30.10,WSW,249,0.0,0.0,92,0.00,,SKC,0.30,VWS V14.01,2013-11-07 00:26:00,
2013-11-06 18:31:00,29.5,27.5,30.11,WSW,249,0.0,0.0,92,0.00,,SKC,0.30,VWS V14.01,2013-11-07 00:31:00,
2013-11-06 18:36:00,29.3,27.3,30.11,WSW,249,0.0,0.0,92,0.00,,SKC,0.30,VWS V14.01,2013-11-07 00:36:00,
2013-11-06 18:41:00,29.2,27.4,30.11,WSW,249,0.0,0.0,93,0.00,,SKC,0.30,VWS V14.01,2013-11-07 00:41:00,
2013-11-06 18:46:00,29.0,27.2,30.11,WSW,249,0.0,0.0,93,0.00,,SKC,0.30,VWS V14.01,2013-11-07 00:46:00,
2013-11-06 18:51:00,28.9,27.1,30.11,WSW,249,0.0,0.0,93,0.00,,SKC,0.30,VWS V14.01,2013-11-07 00:51:00,
2013-11-06 18:56:00,28.8,27.0,30.11,WSW,249,0.0,0.0,93,0.00,,SKC,0.30,VWS V14.01,2013-11-07 00:56:00,
2013-11-06 19:01:00,28.8,27.0,30.12,WSW,249,0.0,0.0,93,0.00,,SKC,0.30,VWS V14.01,2013-11-07 01:01:00,
2013-11-06 19:06:00,28.7,26.9,30.11,WSW,249,0.0,0.0,93,0.00,,SKC,0.30,VWS V14.01,2013-11-07 01:06:00,
2013-11-06 19:11:00,28.9,27.4,30.12,WSW,249,0.0,0.0,94,0.00,,SKC,0.30,VWS V14.01,2013-11-07 01:11:00,
2013-11-06 19:16:00,29.1,27.9,30.12,WSW,249,0.0,0.0,95,0.00,,SKC,0.30,VWS V14.01,2013-11-07 01:16:00,
2013-11-06 19:21:00,29.3,27.8,30.12,WSW,249,0.0,0.0,94,0.00,,SKC,0.30,VWS V14.01,2013-11-07 01:21:00,
2013-11-06 19:26:00,29.4,27.9,30.12,WSW,249,0.0,0.0,94,0.00,,SKC,0.30,VWS V14.01,2013-11-07 01:26:00,
2013-11-06 19:31:00,29.4,27.9,30.11,WSW,249,0.0,0.0,94,0.00,,SKC,0.30,VWS V14.01,2013-11-07 01:31:00,
2013-11-06 19:36:00,29.3,27.5,30.11,WSW,249,0.0,0.0,93,0.00,,SKC,0.30,VWS V14.01,2013-11-07 01:36:00,
2013-11-06 19:41:00,29.2,27.4,30.11,WSW,249,0.0,0.0,93,0.00,,SKC,0.30,VWS V14.01,2013-11-07 01:41:00,
2013-11-06 19:46:00,29.2,27.4,30.11,WSW,249,0.0,0.0,93,0.00,,SKC,0.30,VWS V14.01,2013-11-07 01:46:00,
2013-11-06 19:51:00,29.0,27.2,30.11,WSW,249,0.0,0.0,93,0.00,,SKC,0.30,VWS V14.01,2013-11-07 01:51:00,
2013-11-06 19:56:00,28.9,27.1,30.12,WSW,249,0.0,0.0,93,0.00,,SKC,0.30,VWS V14.01,2013-11-07 01:56:00,
2013-11-06 20:01:00,28.8,27.0,30.11,WSW,249,0.0,0.0,93,0.00,,SKC,0.30,VWS V14.01,2013-11-07 02:01:00,
2013-11-06 20:06:00,28.6,26.8,30.11,WSW,249,0.0,0.0,93,0.00,,SKC,0.30,VWS V14.01,2013-11-07 02:06:00,
2013-11-06 20:11:00,28.4,26.6,30.11,WSW,249,0.0,0.0,93,0.00,,SKC,0.30,VWS V14.01,2013-11-07 02:11:00,
2013-11-06 20:15:00,28.3,26.5,30.11,WSW,249,0.0,0.0,93,0.00,,SKC,0.30,VWS V14.01,2013-11-07 02:15:00,
2013-11-06 20:21:00,28.2,26.4,30.11,WSW,249,0.0,0.0,93,0.00,,SKC,0.30,VWS V14.01,2013-11-07 02:21:00,
2013-11-06 20:25:00,28.2,26.7,30.11,WSW,249,0.0,0.0,94,0.00,,SKC,0.30,VWS V14.01,2013-11-07 02:25:00,
2013-11-06 20:31:00,28.1,26.6,30.11,WSW,249,0.0,0.0,94,0.00,,SKC,0.30,VWS V14.01,2013-11-07 02:31:00,
2013-11-06 20:35:00,28.0,26.5,30.11,WSW,249,0.0,0.0,94,0.00,,SKC,0.30,VWS V14.01,2013-11-07 02:35:00,
2013-11-06 20:41:00,28.0,26.5,30.11,WSW,249,0.0,0.0,94,0.00,,SKC,0.30,VWS V14.01,2013-11-07 02:41:00,
2013-11-06 20:46:00,27.9,26.4,30.12,WSW,249,0.0,0.0,94,0.00,,SKC,0.30,VWS V14.01,2013-11-07 02:46:00,
2013-11-06 20:51:00,27.9,26.4,30.12,WSW,249,0.0,0.0,94,0.00,,SKC,0.30,VWS V14.01,2013-11-07 02:51:00,
2013-11-06 20:56:00,27.7,26.2,30.12,WSW,249,0.0,0.0,94,0.00,,SKC,0.30,VWS V14.01,2013-11-07 02:56:00,
2013-11-06 21:01:00,27.6,26.1,30.13,WSW,249,0.0,0.0,94,0.00,,SKC,0.30,VWS V14.01,2013-11-07 03:01:00,
2013-11-06 21:06:00,27.8,26.3,30.13,WSW,249,0.0,0.0,94,0.00,,SKC,0.30,VWS V14.01,2013-11-07 03:06:00,
2013-11-06 21:11:00,27.8,26.3,30.13,WSW,249,0.0,0.0,94,0.00,,SKC,0.30,VWS V14.01,2013-11-07 03:11:00,
2013-11-06 21:16:00,27.7,26.2,30.13,WSW,249,0.0,0.0,94,0.00,,SKC,0.30,VWS V14.01,2013-11-07 03:16:00,
2013-11-06 21:21:00,27.7,26.2,30.13,WSW,249,0.0,0.0,94,0.00,,SKC,0.30,VWS V14.01,2013-11-07 03:21:00,
2013-11-06 21:26:00,27.6,26.1,30.14,WSW,249,0.0,0.0,94,0.00,,SKC,0.30,VWS V14.01,2013-11-07 03:26:00,
2013-11-06 21:31:00,27.6,26.1,30.13,WSW,249,0.0,0.0,94,0.00,,SKC,0.30,VWS V14.01,2013-11-07 03:31:00,
2013-11-06 21:36:00,27.5,26.0,30.13,WSW,249,0.0,0.0,94,0.00,,SKC,0.30,VWS V14.01,2013-11-07 03:36:00,
2013-11-06 21:41:00,27.4,25.9,30.14,WSW,249,0.0,0.0,94,0.00,,SKC,0.30,VWS V14.01,2013-11-07 03:41:00,
2013-11-06 21:46:00,27.4,25.9,30.14,WSW,249,0.0,0.0,94,0.00,,SKC,0.30,VWS V14.01,2013-11-07 03:46:00,
2013-11-06 21:51:00,27.3,25.8,30.14,WSW,249,0.0,0.0,94,0.00,,SKC,0.30,VWS V14.01,2013-11-07 03:51:00,
2013-11-06 21:56:00,27.2,25.7,30.14,WSW,249,0.0,0.0,94,0.00,,SKC,0.30,VWS V14.01,2013-11-07 03:56:00,
2013-11-06 22:01:00,27.2,25.7,30.14,WSW,249,0.0,0.0,94,0.00,,SKC,0.30,VWS V14.01,2013-11-07 04:01:00,
2013-11-06 22:06:00,27.2,26.0,30.14,WSW,249,0.0,0.0,95,0.00,,SKC,0.30,VWS V14.01,2013-11-07 04:06:00,
2013-11-06 22:11:00,27.1,25.6,30.14,WSW,249,0.0,0.0,94,0.00,,SKC,0.30,VWS V14.01,2013-11-07 04:11:00,
2013-11-06 22:16:00,27.0,25.5,30.14,WSW,249,0.0,0.0,94,0.00,,SKC,0.30,VWS V14.01,2013-11-07 04:16:00,
2013-11-06 22:21:00,26.9,25.4,30.14,WSW,249,0.0,0.0,94,0.00,,SKC,0.30,VWS V14.01,2013-11-07 04:21:00,
2013-11-06 22:26:00,26.8,25.6,30.14,WSW,249,0.0,0.0,95,0.00,,SKC,0.30,VWS V14.01,2013-11-07 04:26:00,
2013-11-06 22:31:00,26.8,25.6,30.13,WSW,249,0.0,0.0,95,0.00,,SKC,0.30,VWS V14.01,2013-11-07 04:31:00,
2013-11-06 22:36:00,26.8,25.6,30.13,WSW,249,0.0,0.0,95,0.00,,SKC,0.30,VWS V14.01,2013-11-07 04:36:00,
2013-11-06 22:41:00,26.8,25.6,30.13,WSW,249,0.0,0.0,95,0.00,,SKC,0.30,VWS V14.01,2013-11-07 04:41:00,
2013-11-06 22:46:00,26.8,25.6,30.13,WSW,249,0.0,0.0,95,0.00,,SKC,0.30,VWS V14.01,2013-11-07 04:46:00,
2013-11-06 22:51:00,26.7,25.5,30.13,WSW,249,0.0,0.0,95,0.00,,SKC,0.30,VWS V14.01,2013-11-07 04:51:00,
2013-11-06 22:56:00,26.7,25.5,30.13,WSW,249,0.0,0.0,95,0.00,,SKC,0.30,VWS V14.01,2013-11-07 04:56:00,
2013-11-06 23:01:00,26.6,25.4,30.13,WSW,249,0.0,0.0,95,0.00,,SKC,0.30,VWS V14.01,2013-11-07 05:01:00,
2013-11-06 23:02:00,26.6,25.4,30.13,WSW,249,0.0,0.0,95,0.00,,SKC,0.30,VWS V14.01,2013-11-07 05:02:00,
2013-11-06 23:06:00,26.5,25.0,30.13,WSW,249,0.0,0.0,94,0.00,,SKC,0.30,VWS V14.01,2013-11-07 05:06:00,
2013-11-06 23:11:00,26.3,25.1,30.13,WSW,249,0.0,0.0,95,0.00,,SKC,0.30,VWS V14.01,2013-11-07 05:11:00,
2013-11-06 23:16:00,26.2,25.0,30.13,WSW,249,0.0,0.0,95,0.00,,SKC,0.30,VWS V14.01,2013-11-07 05:16:00,
2013-11-06 23:21:00,26.1,24.9,30.13,WSW,249,0.0,0.0,95,0.00,,SKC,0.30,VWS V14.01,2013-11-07 05:21:00,
2013-11-06 23:26:00,26.0,24.8,30.13,WSW,249,0.0,0.0,95,0.00,,SKC,0.30,VWS V14.01,2013-11-07 05:26:00,
2013-11-06 23:31:00,25.9,24.7,30.13,WSW,249,0.0,0.0,95,0.00,,SKC,0.30,VWS V14.01,2013-11-07 05:31:00,
2013-11-06 23:36:00,25.9,24.7,30.13,WSW,249,0.0,0.0,95,0.00,,SKC,0.30,VWS V14.01,2013-11-07 05:36:00,
2013-11-06 23:41:00,25.9,24.7,30.13,WSW,249,0.0,0.0,95,0.00,,SKC,0.30,VWS V14.01,2013-11-07 05:41:00,
2013-11-06 23:46:00,25.8,24.6,30.13,WSW,249,0.0,0.0,95,0.00,,SKC,0.30,VWS V14.01,2013-11-07 05:46:00,
2013-11-06 23:51:00,25.8,24.6,30.14,WSW,249,0.0,0.0,95,0.00,,SKC,0.30,VWS V14.01,2013-11-07 05:51:00,
2013-11-06 23:56:00,25.8,24.6,30.14,WSW,249,0.0,0.0,95,0.00,,SKC,0.30,VWS V14.01,2013-11-07 05:56:00,